sensor_id;sensor_type;location;lat;lon;timestamp;temperature;humidity
59651;DHT22;45954;49.768;8.636;2022-12-05T00:00:54;4.90;99.90
59651;DHT22;45954;49.768;8.636;2022-12-05T00:03:21;4.80;99.90
59651;DHT22;45954;49.768;8.636;2022-12-05T00:05:48;4.90;99.90
59651;DHT22;45954;49.768;8.636;2022-12-05T00:08:14;4.90;99.90
59651;DHT22;45954;49.768;8.636;2022-12-05T00:10:40;5.00;99.90
59651;DHT22;45954;49.768;8.636;2022-12-05T00:13:06;5.00;99.90
59651;DHT22;45954;49.768;8.636;2022-12-05T00:15:39;5.20;99.90
59651;DHT22;45954;49.768;8.636;2022-12-05T00:18:06;5.00;99.90
59651;DHT22;45954;49.768;8.636;2022-12-05T00:20:32;4.50;99.90
59651;DHT22;45954;49.768;8.636;2022-12-05T00:22:58;4.40;99.90
59651;DHT22;45954;49.768;8.636;2022-12-05T00:25:24;4.40;99.90
59651;DHT22;45954;49.768;8.636;2022-12-05T00:27:50;4.50;99.90
59651;DHT22;45954;49.768;8.636;2022-12-05T00:30:16;4.40;99.90
59651;DHT22;45954;49.768;8.636;2022-12-05T00:32:42;4.40;99.90
59651;DHT22;45954;49.768;8.636;2022-12-05T00:35:08;4.40;99.90
59651;DHT22;45954;49.768;8.636;2022-12-05T00:37:34;4.30;99.90
59651;DHT22;45954;49.768;8.636;2022-12-05T00:39:59;4.40;99.90
59651;DHT22;45954;49.768;8.636;2022-12-05T00:42:25;4.20;99.90
59651;DHT22;45954;49.768;8.636;2022-12-05T00:44:51;4.10;99.90
59651;DHT22;45954;49.768;8.636;2022-12-05T00:47:17;4.00;99.90
59651;DHT22;45954;49.768;8.636;2022-12-05T00:49:43;4.00;99.90
59651;DHT22;45954;49.768;8.636;2022-12-05T00:52:09;4.20;99.90
59651;DHT22;45954;49.768;8.636;2022-12-05T00:54:34;4.30;99.90
59651;DHT22;45954;49.768;8.636;2022-12-05T00:57:00;4.00;99.90
59651;DHT22;45954;49.768;8.636;2022-12-05T00:59:26;3.90;99.90
59651;DHT22;45954;49.768;8.636;2022-12-05T01:01:52;4.00;99.90
59651;DHT22;45954;49.768;8.636;2022-12-05T01:04:20;4.20;99.90
59651;DHT22;45954;49.768;8.636;2022-12-05T01:06:49;4.20;99.90
59651;DHT22;45954;49.768;8.636;2022-12-05T01:09:18;4.40;99.90
59651;DHT22;45954;49.768;8.636;2022-12-05T01:11:45;4.60;99.90
59651;DHT22;45954;49.768;8.636;2022-12-05T01:14:13;4.40;99.90
59651;DHT22;45954;49.768;8.636;2022-12-05T01:16:43;4.50;99.90
59651;DHT22;45954;49.768;8.636;2022-12-05T01:19:13;4.50;99.90
59651;DHT22;45954;49.768;8.636;2022-12-05T01:21:45;4.70;99.90
59651;DHT22;45954;49.768;8.636;2022-12-05T01:24:13;4.50;99.90
59651;DHT22;45954;49.768;8.636;2022-12-05T01:26:41;4.50;99.90
59651;DHT22;45954;49.768;8.636;2022-12-05T01:29:07;4.60;99.90
59651;DHT22;45954;49.768;8.636;2022-12-05T01:31:35;4.40;99.90
59651;DHT22;45954;49.768;8.636;2022-12-05T01:34:04;4.30;99.90
59651;DHT22;45954;49.768;8.636;2022-12-05T01:36:31;4.30;99.90
59651;DHT22;45954;49.768;8.636;2022-12-05T01:38:58;4.30;99.90
59651;DHT22;45954;49.768;8.636;2022-12-05T01:41:28;4.30;99.90
59651;DHT22;45954;49.768;8.636;2022-12-05T01:49:25;4.10;99.90
59651;DHT22;45954;49.768;8.636;2022-12-05T01:51:58;4.00;99.90
59651;DHT22;45954;49.768;8.636;2022-12-05T01:54:36;4.00;99.90
59651;DHT22;45954;49.768;8.636;2022-12-05T01:57:06;4.00;99.90
59651;DHT22;45954;49.768;8.636;2022-12-05T01:59:37;4.10;99.90
59651;DHT22;45954;49.768;8.636;2022-12-05T02:02:07;4.20;99.90
59651;DHT22;45954;49.768;8.636;2022-12-05T02:04:41;4.00;99.90
59651;DHT22;45954;49.768;8.636;2022-12-05T02:07:18;4.20;99.90
59651;DHT22;45954;49.768;8.636;2022-12-05T02:09:48;4.40;99.90
59651;DHT22;45954;49.768;8.636;2022-12-05T02:12:18;4.30;99.90
59651;DHT22;45954;49.768;8.636;2022-12-05T02:20:52;4.50;99.90
59651;DHT22;45954;49.768;8.636;2022-12-05T02:30:23;4.60;99.90
59651;DHT22;45954;49.768;8.636;2022-12-05T02:33:07;4.30;99.90
59651;DHT22;45954;49.768;8.636;2022-12-05T02:39:05;4.00;99.90
59651;DHT22;45954;49.768;8.636;2022-12-05T02:44:49;4.20;99.90
59651;DHT22;45954;49.768;8.636;2022-12-05T02:47:25;4.40;99.90
59651;DHT22;45954;49.768;8.636;2022-12-05T02:49:55;4.60;99.90
59651;DHT22;45954;49.768;8.636;2022-12-05T02:52:23;4.60;99.90
59651;DHT22;45954;49.768;8.636;2022-12-05T02:54:53;4.40;99.90
59651;DHT22;45954;49.768;8.636;2022-12-05T02:57:21;4.20;99.90
59651;DHT22;45954;49.768;8.636;2022-12-05T02:59:49;4.10;99.90
59651;DHT22;45954;49.768;8.636;2022-12-05T03:05:37;4.10;99.90
59651;DHT22;45954;49.768;8.636;2022-12-05T03:08:09;4.10;99.90
59651;DHT22;45954;49.768;8.636;2022-12-05T03:10:42;4.20;99.90
59651;DHT22;45954;49.768;8.636;2022-12-05T03:13:17;4.20;99.90
59651;DHT22;45954;49.768;8.636;2022-12-05T03:15:49;4.40;99.90
59651;DHT22;45954;49.768;8.636;2022-12-05T03:18:25;4.40;99.90
59651;DHT22;45954;49.768;8.636;2022-12-05T03:21:42;4.60;99.90
59651;DHT22;45954;49.768;8.636;2022-12-05T03:24:17;4.70;99.90
59651;DHT22;45954;49.768;8.636;2022-12-05T03:29:55;4.70;99.90
59651;DHT22;45954;49.768;8.636;2022-12-05T03:32:39;4.60;99.90
59651;DHT22;45954;49.768;8.636;2022-12-05T03:35:21;4.60;99.90
59651;DHT22;45954;49.768;8.636;2022-12-05T03:38:37;4.50;99.90
59651;DHT22;45954;49.768;8.636;2022-12-05T03:41:22;4.40;99.90
59651;DHT22;45954;49.768;8.636;2022-12-05T03:44:07;4.30;99.90
59651;DHT22;45954;49.768;8.636;2022-12-05T03:47:03;4.00;99.90
59651;DHT22;45954;49.768;8.636;2022-12-05T03:49:40;4.10;99.90
59651;DHT22;45954;49.768;8.636;2022-12-05T03:52:26;4.20;99.90
59651;DHT22;45954;49.768;8.636;2022-12-05T03:55:03;4.20;99.90
59651;DHT22;45954;49.768;8.636;2022-12-05T03:57:51;4.10;99.90
59651;DHT22;45954;49.768;8.636;2022-12-05T04:00:22;4.00;99.90
59651;DHT22;45954;49.768;8.636;2022-12-05T04:03:11;4.10;99.90
59651;DHT22;45954;49.768;8.636;2022-12-05T04:08:19;4.50;99.90
59651;DHT22;45954;49.768;8.636;2022-12-05T04:10:51;4.50;99.90
59651;DHT22;45954;49.768;8.636;2022-12-05T04:13:41;4.60;99.90
59651;DHT22;45954;49.768;8.636;2022-12-05T04:16:23;4.70;99.90
59651;DHT22;45954;49.768;8.636;2022-12-05T04:22:21;4.90;99.90
59651;DHT22;45954;49.768;8.636;2022-12-05T04:24:50;4.80;99.90
59651;DHT22;45954;49.768;8.636;2022-12-05T04:30:20;4.60;99.90
59651;DHT22;45954;49.768;8.636;2022-12-05T04:35:38;4.60;99.90
59651;DHT22;45954;49.768;8.636;2022-12-05T04:38:41;4.50;99.90
59651;DHT22;45954;49.768;8.636;2022-12-05T04:41:32;4.30;99.90
59651;DHT22;45954;49.768;8.636;2022-12-05T04:44:06;4.50;99.90
59651;DHT22;45954;49.768;8.636;2022-12-05T04:46:38;4.40;99.90
59651;DHT22;45954;49.768;8.636;2022-12-05T04:49:09;4.30;99.90
59651;DHT22;45954;49.768;8.636;2022-12-05T04:51:38;4.30;99.90
59651;DHT22;45954;49.768;8.636;2022-12-05T04:55:01;4.40;99.90
59651;DHT22;45954;49.768;8.636;2022-12-05T04:57:21;4.50;99.90
59651;DHT22;45954;49.768;8.636;2022-12-05T04:59:56;4.30;99.90
59651;DHT22;45954;49.768;8.636;2022-12-05T05:02:42;4.10;99.90
59651;DHT22;45954;49.768;8.636;2022-12-05T05:05:17;4.00;99.90
59651;DHT22;45954;49.768;8.636;2022-12-05T05:07:46;4.00;99.90
59651;DHT22;45954;49.768;8.636;2022-12-05T05:10:21;4.10;99.90
59651;DHT22;45954;49.768;8.636;2022-12-05T05:12:51;4.20;99.90
59651;DHT22;45954;49.768;8.636;2022-12-05T05:15:17;4.20;99.90
59651;DHT22;45954;49.768;8.636;2022-12-05T05:17:43;4.50;99.90
59651;DHT22;45954;49.768;8.636;2022-12-05T05:20:09;4.60;99.90
59651;DHT22;45954;49.768;8.636;2022-12-05T05:22:54;4.40;99.90
59651;DHT22;45954;49.768;8.636;2022-12-05T05:25:21;4.40;99.90
59651;DHT22;45954;49.768;8.636;2022-12-05T05:27:48;4.20;99.90
59651;DHT22;45954;49.768;8.636;2022-12-05T05:30:16;4.20;99.90
59651;DHT22;45954;49.768;8.636;2022-12-05T05:32:43;4.20;99.90
59651;DHT22;45954;49.768;8.636;2022-12-05T05:35:09;4.40;99.90
59651;DHT22;45954;49.768;8.636;2022-12-05T05:37:36;4.80;99.90
59651;DHT22;45954;49.768;8.636;2022-12-05T05:40:04;4.60;99.90
59651;DHT22;45954;49.768;8.636;2022-12-05T05:42:31;4.40;99.90
59651;DHT22;45954;49.768;8.636;2022-12-05T05:44:57;4.20;99.90
59651;DHT22;45954;49.768;8.636;2022-12-05T05:47:23;4.40;99.90
59651;DHT22;45954;49.768;8.636;2022-12-05T05:49:49;4.60;99.90
59651;DHT22;45954;49.768;8.636;2022-12-05T05:52:15;4.70;99.90
59651;DHT22;45954;49.768;8.636;2022-12-05T05:54:43;4.80;99.90
59651;DHT22;45954;49.768;8.636;2022-12-05T05:57:09;4.50;99.90
59651;DHT22;45954;49.768;8.636;2022-12-05T05:59:34;4.40;99.90
59651;DHT22;45954;49.768;8.636;2022-12-05T06:02:01;4.50;99.90
59651;DHT22;45954;49.768;8.636;2022-12-05T06:04:27;4.30;99.90
59651;DHT22;45954;49.768;8.636;2022-12-05T06:06:53;4.20;99.90
59651;DHT22;45954;49.768;8.636;2022-12-05T06:09:19;4.30;99.90
59651;DHT22;45954;49.768;8.636;2022-12-05T06:11:45;4.50;99.90
59651;DHT22;45954;49.768;8.636;2022-12-05T06:14:10;4.40;99.90
59651;DHT22;45954;49.768;8.636;2022-12-05T06:16:36;4.30;99.90
59651;DHT22;45954;49.768;8.636;2022-12-05T06:19:02;4.60;99.90
59651;DHT22;45954;49.768;8.636;2022-12-05T06:21:28;4.70;99.90
59651;DHT22;45954;49.768;8.636;2022-12-05T06:23:54;4.70;99.90
59651;DHT22;45954;49.768;8.636;2022-12-05T06:26:21;4.70;99.90
59651;DHT22;45954;49.768;8.636;2022-12-05T06:28:47;4.50;99.90
59651;DHT22;45954;49.768;8.636;2022-12-05T06:31:22;4.50;99.90
59651;DHT22;45954;49.768;8.636;2022-12-05T06:33:51;4.40;99.90
59651;DHT22;45954;49.768;8.636;2022-12-05T06:36:20;4.30;99.90
59651;DHT22;45954;49.768;8.636;2022-12-05T06:38:46;4.30;99.90
59651;DHT22;45954;49.768;8.636;2022-12-05T06:41:15;4.20;99.90
59651;DHT22;45954;49.768;8.636;2022-12-05T06:43:42;4.30;99.90
59651;DHT22;45954;49.768;8.636;2022-12-05T06:46:10;4.30;99.90
59651;DHT22;45954;49.768;8.636;2022-12-05T06:48:37;4.40;99.90
59651;DHT22;45954;49.768;8.636;2022-12-05T06:51:03;4.40;99.90
59651;DHT22;45954;49.768;8.636;2022-12-05T06:53:31;4.60;99.90
59651;DHT22;45954;49.768;8.636;2022-12-05T06:56:03;4.50;99.90
59651;DHT22;45954;49.768;8.636;2022-12-05T06:58:32;4.70;99.90
59651;DHT22;45954;49.768;8.636;2022-12-05T07:00:58;4.80;99.90
59651;DHT22;45954;49.768;8.636;2022-12-05T07:03:43;4.80;99.90
59651;DHT22;45954;49.768;8.636;2022-12-05T07:06:09;4.80;99.90
59651;DHT22;45954;49.768;8.636;2022-12-05T07:08:35;4.70;99.90
59651;DHT22;45954;49.768;8.636;2022-12-05T07:11:02;4.50;99.90
59651;DHT22;45954;49.768;8.636;2022-12-05T07:13:29;4.80;99.90
59651;DHT22;45954;49.768;8.636;2022-12-05T07:15:54;4.80;99.90
59651;DHT22;45954;49.768;8.636;2022-12-05T07:18:20;4.80;99.90
59651;DHT22;45954;49.768;8.636;2022-12-05T07:20:56;5.10;99.90
59651;DHT22;45954;49.768;8.636;2022-12-05T07:23:22;5.10;99.90
59651;DHT22;45954;49.768;8.636;2022-12-05T07:25:48;4.90;99.90
59651;DHT22;45954;49.768;8.636;2022-12-05T07:28:14;4.90;99.90
59651;DHT22;45954;49.768;8.636;2022-12-05T07:30:40;4.90;99.90
59651;DHT22;45954;49.768;8.636;2022-12-05T07:33:05;5.00;99.90
59651;DHT22;45954;49.768;8.636;2022-12-05T07:35:31;5.20;99.90
59651;DHT22;45954;49.768;8.636;2022-12-05T07:37:57;5.30;99.90
59651;DHT22;45954;49.768;8.636;2022-12-05T07:40:24;5.40;99.90
59651;DHT22;45954;49.768;8.636;2022-12-05T07:42:50;5.10;99.90
59651;DHT22;45954;49.768;8.636;2022-12-05T07:45:19;5.00;99.90
59651;DHT22;45954;49.768;8.636;2022-12-05T07:47:45;4.90;99.90
59651;DHT22;45954;49.768;8.636;2022-12-05T07:50:13;4.80;99.90
59651;DHT22;45954;49.768;8.636;2022-12-05T07:52:40;4.70;99.90
59651;DHT22;45954;49.768;8.636;2022-12-05T07:55:07;4.70;99.90
59651;DHT22;45954;49.768;8.636;2022-12-05T07:57:33;4.60;99.90
59651;DHT22;45954;49.768;8.636;2022-12-05T07:59:59;4.70;99.90
59651;DHT22;45954;49.768;8.636;2022-12-05T08:02:25;4.80;99.90
59651;DHT22;45954;49.768;8.636;2022-12-05T08:04:51;4.80;99.90
59651;DHT22;45954;49.768;8.636;2022-12-05T08:07:16;4.80;99.90
59651;DHT22;45954;49.768;8.636;2022-12-05T08:09:42;4.70;99.90
59651;DHT22;45954;49.768;8.636;2022-12-05T08:12:08;4.80;99.90
59651;DHT22;45954;49.768;8.636;2022-12-05T08:14:34;5.10;99.90
59651;DHT22;45954;49.768;8.636;2022-12-05T08:17:00;5.10;99.90
59651;DHT22;45954;49.768;8.636;2022-12-05T08:19:25;4.90;99.90
59651;DHT22;45954;49.768;8.636;2022-12-05T08:21:53;4.80;99.90
59651;DHT22;45954;49.768;8.636;2022-12-05T08:24:19;4.80;99.90
59651;DHT22;45954;49.768;8.636;2022-12-05T08:26:45;4.80;99.90
59651;DHT22;45954;49.768;8.636;2022-12-05T08:29:13;4.70;99.90
59651;DHT22;45954;49.768;8.636;2022-12-05T08:31:43;4.60;99.90
59651;DHT22;45954;49.768;8.636;2022-12-05T08:34:12;4.70;99.90
59651;DHT22;45954;49.768;8.636;2022-12-05T08:36:40;4.70;99.90
59651;DHT22;45954;49.768;8.636;2022-12-05T08:39:07;4.70;99.90
59651;DHT22;45954;49.768;8.636;2022-12-05T08:41:38;4.80;99.90
59651;DHT22;45954;49.768;8.636;2022-12-05T08:44:05;4.70;99.90
59651;DHT22;45954;49.768;8.636;2022-12-05T08:46:34;4.70;99.90
59651;DHT22;45954;49.768;8.636;2022-12-05T08:49:03;4.80;99.90
59651;DHT22;45954;49.768;8.636;2022-12-05T08:51:29;4.90;99.90
59651;DHT22;45954;49.768;8.636;2022-12-05T08:53:55;4.90;99.90
59651;DHT22;45954;49.768;8.636;2022-12-05T08:56:22;5.00;99.90
59651;DHT22;45954;49.768;8.636;2022-12-05T08:58:48;4.90;99.90
59651;DHT22;45954;49.768;8.636;2022-12-05T09:01:17;4.80;99.90
59651;DHT22;45954;49.768;8.636;2022-12-05T09:03:45;4.90;99.90
59651;DHT22;45954;49.768;8.636;2022-12-05T09:06:18;4.90;99.90
59651;DHT22;45954;49.768;8.636;2022-12-05T09:08:46;4.90;99.90
59651;DHT22;45954;49.768;8.636;2022-12-05T09:11:18;5.10;99.90
59651;DHT22;45954;49.768;8.636;2022-12-05T09:13:47;5.00;99.90
59651;DHT22;45954;49.768;8.636;2022-12-05T09:16:28;5.10;99.90
59651;DHT22;45954;49.768;8.636;2022-12-05T09:18:56;5.10;99.90
59651;DHT22;45954;49.768;8.636;2022-12-05T09:21:26;5.10;99.90
59651;DHT22;45954;49.768;8.636;2022-12-05T09:23:54;5.10;99.90
59651;DHT22;45954;49.768;8.636;2022-12-05T09:26:23;5.00;99.90
59651;DHT22;45954;49.768;8.636;2022-12-05T09:28:51;5.00;99.90
59651;DHT22;45954;49.768;8.636;2022-12-05T09:31:21;4.90;99.90
59651;DHT22;45954;49.768;8.636;2022-12-05T09:33:49;4.90;99.90
59651;DHT22;45954;49.768;8.636;2022-12-05T09:36:17;5.00;99.90
59651;DHT22;45954;49.768;8.636;2022-12-05T09:38:45;5.10;99.90
59651;DHT22;45954;49.768;8.636;2022-12-05T09:41:39;4.90;99.90
59651;DHT22;45954;49.768;8.636;2022-12-05T09:47:41;5.10;99.90
59651;DHT22;45954;49.768;8.636;2022-12-05T09:50:25;5.20;99.90
59651;DHT22;45954;49.768;8.636;2022-12-05T09:53:04;5.00;99.90
59651;DHT22;45954;49.768;8.636;2022-12-05T09:55:57;4.90;99.90
59651;DHT22;45954;49.768;8.636;2022-12-05T10:01:26;4.90;99.90
59651;DHT22;45954;49.768;8.636;2022-12-05T10:10:14;5.10;99.90
59651;DHT22;45954;49.768;8.636;2022-12-05T10:16:11;5.10;99.90
59651;DHT22;45954;49.768;8.636;2022-12-05T10:18:45;5.40;99.90
59651;DHT22;45954;49.768;8.636;2022-12-05T10:21:31;5.10;99.90
59651;DHT22;45954;49.768;8.636;2022-12-05T10:24:03;5.10;99.90
59651;DHT22;45954;49.768;8.636;2022-12-05T10:26:45;5.00;99.90
59651;DHT22;45954;49.768;8.636;2022-12-05T10:29:30;5.30;99.90
59651;DHT22;45954;49.768;8.636;2022-12-05T10:32:14;5.20;99.90
59651;DHT22;45954;49.768;8.636;2022-12-05T10:34:43;5.30;99.90
59651;DHT22;45954;49.768;8.636;2022-12-05T10:37:19;5.20;99.90
59651;DHT22;45954;49.768;8.636;2022-12-05T10:39:48;5.30;99.90
59651;DHT22;45954;49.768;8.636;2022-12-05T10:42:41;5.20;99.90
59651;DHT22;45954;49.768;8.636;2022-12-05T10:45:15;5.40;99.90
59651;DHT22;45954;49.768;8.636;2022-12-05T10:47:43;5.40;99.90
59651;DHT22;45954;49.768;8.636;2022-12-05T10:50:29;5.30;99.90
59651;DHT22;45954;49.768;8.636;2022-12-05T10:52:59;5.50;99.90
59651;DHT22;45954;49.768;8.636;2022-12-05T10:55:36;5.40;99.90
59651;DHT22;45954;49.768;8.636;2022-12-05T10:58:25;5.30;99.90
59651;DHT22;45954;49.768;8.636;2022-12-05T11:00:58;5.30;99.90
59651;DHT22;45954;49.768;8.636;2022-12-05T11:03:37;5.50;99.90
59651;DHT22;45954;49.768;8.636;2022-12-05T11:06:24;5.50;99.90
59651;DHT22;45954;49.768;8.636;2022-12-05T11:08:54;5.50;99.90
59651;DHT22;45954;49.768;8.636;2022-12-05T11:11:25;5.60;99.90
59651;DHT22;45954;49.768;8.636;2022-12-05T11:13:59;5.60;99.90
59651;DHT22;45954;49.768;8.636;2022-12-05T11:16:34;5.50;99.90
59651;DHT22;45954;49.768;8.636;2022-12-05T11:21:46;5.40;99.90
59651;DHT22;45954;49.768;8.636;2022-12-05T11:27:18;5.40;99.90
59651;DHT22;45954;49.768;8.636;2022-12-05T11:30:18;5.40;99.90
59651;DHT22;45954;49.768;8.636;2022-12-05T11:32:45;5.60;99.90
59651;DHT22;45954;49.768;8.636;2022-12-05T11:37:56;5.40;99.90
59651;DHT22;45954;49.768;8.636;2022-12-05T11:50:00;5.70;99.90
59651;DHT22;45954;49.768;8.636;2022-12-05T12:11:52;5.60;99.90
59651;DHT22;45954;49.768;8.636;2022-12-05T12:14:27;5.60;99.90
59651;DHT22;45954;49.768;8.636;2022-12-05T12:20:12;5.70;99.90
59651;DHT22;45954;49.768;8.636;2022-12-05T12:29:06;5.70;99.90
59651;DHT22;45954;49.768;8.636;2022-12-05T12:35:21;5.70;99.90
59651;DHT22;45954;49.768;8.636;2022-12-05T12:38:06;5.70;99.90
59651;DHT22;45954;49.768;8.636;2022-12-05T12:40:58;6.00;99.90
59651;DHT22;45954;49.768;8.636;2022-12-05T12:46:48;5.80;99.90
59651;DHT22;45954;49.768;8.636;2022-12-05T12:52:16;5.90;99.90
59651;DHT22;45954;49.768;8.636;2022-12-05T12:55:09;5.80;99.90
59651;DHT22;45954;49.768;8.636;2022-12-05T12:58:04;5.90;99.90
59651;DHT22;45954;49.768;8.636;2022-12-05T13:00:59;5.90;99.90
59651;DHT22;45954;49.768;8.636;2022-12-05T13:03:36;5.80;99.90
59651;DHT22;45954;49.768;8.636;2022-12-05T13:06:12;5.90;99.90
59651;DHT22;45954;49.768;8.636;2022-12-05T13:09:02;5.90;99.90
59651;DHT22;45954;49.768;8.636;2022-12-05T13:11:37;6.00;99.90
59651;DHT22;45954;49.768;8.636;2022-12-05T13:14:11;5.80;99.90
59651;DHT22;45954;49.768;8.636;2022-12-05T13:16:46;5.70;99.90
59651;DHT22;45954;49.768;8.636;2022-12-05T13:19:38;6.00;99.90
59651;DHT22;45954;49.768;8.636;2022-12-05T13:22:11;6.10;99.90
59651;DHT22;45954;49.768;8.636;2022-12-05T13:24:38;6.10;99.90
59651;DHT22;45954;49.768;8.636;2022-12-05T13:27:08;6.10;99.90
59651;DHT22;45954;49.768;8.636;2022-12-05T13:29:46;5.90;99.90
59651;DHT22;45954;49.768;8.636;2022-12-05T13:32:33;6.00;99.90
59651;DHT22;45954;49.768;8.636;2022-12-05T13:37:33;6.00;99.90
59651;DHT22;45954;49.768;8.636;2022-12-05T13:40:31;6.00;99.90
59651;DHT22;45954;49.768;8.636;2022-12-05T13:43:21;6.10;99.90
59651;DHT22;45954;49.768;8.636;2022-12-05T13:46:08;6.10;99.90
59651;DHT22;45954;49.768;8.636;2022-12-05T13:48:45;6.20;99.90
59651;DHT22;45954;49.768;8.636;2022-12-05T13:51:31;6.20;99.90
59651;DHT22;45954;49.768;8.636;2022-12-05T13:54:21;6.00;99.90
59651;DHT22;45954;49.768;8.636;2022-12-05T13:56:55;6.20;99.90
59651;DHT22;45954;49.768;8.636;2022-12-05T14:03:05;6.10;99.90
59651;DHT22;45954;49.768;8.636;2022-12-05T14:05:45;6.20;99.90
59651;DHT22;45954;49.768;8.636;2022-12-05T14:15:53;6.20;99.90
59651;DHT22;45954;49.768;8.636;2022-12-05T14:21:40;6.30;99.90
59651;DHT22;45954;49.768;8.636;2022-12-05T14:24:31;6.30;99.90
59651;DHT22;45954;49.768;8.636;2022-12-05T14:32:39;6.00;99.90
59651;DHT22;45954;49.768;8.636;2022-12-05T14:38:27;6.00;99.90
59651;DHT22;45954;49.768;8.636;2022-12-05T14:41:09;5.90;99.90
59651;DHT22;45954;49.768;8.636;2022-12-05T14:43:38;6.10;99.90
59651;DHT22;45954;49.768;8.636;2022-12-05T14:46:23;6.20;99.90
59651;DHT22;45954;49.768;8.636;2022-12-05T14:48:51;6.30;99.90
59651;DHT22;45954;49.768;8.636;2022-12-05T14:54:17;6.10;99.90
59651;DHT22;45954;49.768;8.636;2022-12-05T14:56:45;6.10;99.90
59651;DHT22;45954;49.768;8.636;2022-12-05T14:59:28;6.10;99.90
59651;DHT22;45954;49.768;8.636;2022-12-05T15:02:00;6.20;99.90
59651;DHT22;45954;49.768;8.636;2022-12-05T15:04:49;6.20;99.90
59651;DHT22;45954;49.768;8.636;2022-12-05T15:07:26;6.20;99.90
59651;DHT22;45954;49.768;8.636;2022-12-05T15:10:09;6.30;99.90
59651;DHT22;45954;49.768;8.636;2022-12-05T15:12:45;6.40;99.90
59651;DHT22;45954;49.768;8.636;2022-12-05T15:18:13;6.20;99.90
59651;DHT22;45954;49.768;8.636;2022-12-05T15:20:57;6.40;99.90
59651;DHT22;45954;49.768;8.636;2022-12-05T15:26:22;6.10;99.90
59651;DHT22;45954;49.768;8.636;2022-12-05T15:29:25;6.10;99.90
59651;DHT22;45954;49.768;8.636;2022-12-05T15:32:01;6.10;99.90
59651;DHT22;45954;49.768;8.636;2022-12-05T15:34:49;6.20;99.90
59651;DHT22;45954;49.768;8.636;2022-12-05T15:37:23;6.30;99.90
59651;DHT22;45954;49.768;8.636;2022-12-05T15:40:13;6.30;99.90
59651;DHT22;45954;49.768;8.636;2022-12-05T15:45:25;6.30;99.90
59651;DHT22;45954;49.768;8.636;2022-12-05T15:47:55;6.30;99.90
59651;DHT22;45954;49.768;8.636;2022-12-05T15:50:43;6.30;99.90
59651;DHT22;45954;49.768;8.636;2022-12-05T16:01:37;6.10;99.90
59651;DHT22;45954;49.768;8.636;2022-12-05T16:04:27;6.10;99.90
59651;DHT22;45954;49.768;8.636;2022-12-05T16:07:10;6.10;99.90
59651;DHT22;45954;49.768;8.636;2022-12-05T16:09:43;6.20;99.90
59651;DHT22;45954;49.768;8.636;2022-12-05T16:12:26;6.20;99.90
59651;DHT22;45954;49.768;8.636;2022-12-05T16:15:04;6.20;99.90
59651;DHT22;45954;49.768;8.636;2022-12-05T16:17:47;6.10;99.90
59651;DHT22;45954;49.768;8.636;2022-12-05T16:20:20;6.40;99.90
59651;DHT22;45954;49.768;8.636;2022-12-05T16:22:55;6.50;99.90
59651;DHT22;45954;49.768;8.636;2022-12-05T16:25:29;6.60;99.90
59651;DHT22;45954;49.768;8.636;2022-12-05T16:28:02;6.50;99.90
59651;DHT22;45954;49.768;8.636;2022-12-05T16:31:00;6.20;99.90
59651;DHT22;45954;49.768;8.636;2022-12-05T16:33:28;6.10;99.90
59651;DHT22;45954;49.768;8.636;2022-12-05T16:35:55;6.30;99.90
59651;DHT22;45954;49.768;8.636;2022-12-05T16:38:28;6.10;99.90
59651;DHT22;45954;49.768;8.636;2022-12-05T16:41:02;5.90;99.90
59651;DHT22;45954;49.768;8.636;2022-12-05T16:48:39;6.10;99.90
59651;DHT22;45954;49.768;8.636;2022-12-05T16:53:49;6.10;99.90
59651;DHT22;45954;49.768;8.636;2022-12-05T16:56:22;6.10;99.90
59651;DHT22;45954;49.768;8.636;2022-12-05T16:58:51;6.10;99.90
59651;DHT22;45954;49.768;8.636;2022-12-05T17:01:22;6.10;99.90
59651;DHT22;45954;49.768;8.636;2022-12-05T17:03:49;6.10;99.90
59651;DHT22;45954;49.768;8.636;2022-12-05T17:06:18;6.10;99.90
59651;DHT22;45954;49.768;8.636;2022-12-05T17:08:46;6.20;99.90
59651;DHT22;45954;49.768;8.636;2022-12-05T17:11:28;6.20;99.90
59651;DHT22;45954;49.768;8.636;2022-12-05T17:13:57;6.20;99.90
59651;DHT22;45954;49.768;8.636;2022-12-05T17:16:24;6.20;99.90
59651;DHT22;45954;49.768;8.636;2022-12-05T17:18:51;6.00;99.90
59651;DHT22;45954;49.768;8.636;2022-12-05T17:21:24;5.90;99.90
59651;DHT22;45954;49.768;8.636;2022-12-05T17:23:51;5.90;99.90
59651;DHT22;45954;49.768;8.636;2022-12-05T17:26:19;6.10;99.90
59651;DHT22;45954;49.768;8.636;2022-12-05T17:28:46;6.10;99.90
59651;DHT22;45954;49.768;8.636;2022-12-05T17:31:16;6.00;99.90
59651;DHT22;45954;49.768;8.636;2022-12-05T17:33:47;6.00;99.90
59651;DHT22;45954;49.768;8.636;2022-12-05T17:36:14;6.20;99.90
59651;DHT22;45954;49.768;8.636;2022-12-05T17:38:41;6.20;99.90
59651;DHT22;45954;49.768;8.636;2022-12-05T17:41:17;6.20;99.90
59651;DHT22;45954;49.768;8.636;2022-12-05T17:43:45;6.30;99.90
59651;DHT22;45954;49.768;8.636;2022-12-05T17:46:18;6.20;99.90
59651;DHT22;45954;49.768;8.636;2022-12-05T17:48:46;6.30;99.90
59651;DHT22;45954;49.768;8.636;2022-12-05T17:51:13;6.20;99.90
59651;DHT22;45954;49.768;8.636;2022-12-05T17:53:40;6.20;99.90
59651;DHT22;45954;49.768;8.636;2022-12-05T17:56:07;6.10;99.90
59651;DHT22;45954;49.768;8.636;2022-12-05T17:58:33;6.20;99.90
59651;DHT22;45954;49.768;8.636;2022-12-05T18:01:00;6.10;99.90
59651;DHT22;45954;49.768;8.636;2022-12-05T18:03:27;6.30;99.90
59651;DHT22;45954;49.768;8.636;2022-12-05T18:05:53;6.20;99.90
59651;DHT22;45954;49.768;8.636;2022-12-05T18:08:19;6.20;99.90
59651;DHT22;45954;49.768;8.636;2022-12-05T18:10:47;6.30;99.90
59651;DHT22;45954;49.768;8.636;2022-12-05T18:13:14;6.40;99.90
59651;DHT22;45954;49.768;8.636;2022-12-05T18:15:41;6.30;99.90
59651;DHT22;45954;49.768;8.636;2022-12-05T18:18:13;6.40;99.90
59651;DHT22;45954;49.768;8.636;2022-12-05T18:20:40;6.30;99.90
59651;DHT22;45954;49.768;8.636;2022-12-05T18:23:06;6.30;99.90
59651;DHT22;45954;49.768;8.636;2022-12-05T18:25:32;6.30;99.90
59651;DHT22;45954;49.768;8.636;2022-12-05T18:27:58;6.20;99.90
59651;DHT22;45954;49.768;8.636;2022-12-05T18:30:24;6.20;99.90
59651;DHT22;45954;49.768;8.636;2022-12-05T18:32:49;6.20;99.90
59651;DHT22;45954;49.768;8.636;2022-12-05T18:35:15;6.30;99.90
59651;DHT22;45954;49.768;8.636;2022-12-05T18:37:41;6.40;99.90
59651;DHT22;45954;49.768;8.636;2022-12-05T18:40:09;6.30;99.90
59651;DHT22;45954;49.768;8.636;2022-12-05T18:42:35;6.10;99.90
59651;DHT22;45954;49.768;8.636;2022-12-05T18:45:02;6.00;99.90
59651;DHT22;45954;49.768;8.636;2022-12-05T18:47:28;6.30;99.90
59651;DHT22;45954;49.768;8.636;2022-12-05T18:49:54;6.20;99.90
59651;DHT22;45954;49.768;8.636;2022-12-05T18:52:20;6.40;99.90
59651;DHT22;45954;49.768;8.636;2022-12-05T18:54:45;6.40;99.90
59651;DHT22;45954;49.768;8.636;2022-12-05T18:57:11;6.30;99.90
59651;DHT22;45954;49.768;8.636;2022-12-05T18:59:37;6.20;99.90
59651;DHT22;45954;49.768;8.636;2022-12-05T19:02:03;6.20;99.90
59651;DHT22;45954;49.768;8.636;2022-12-05T19:04:30;6.40;99.90
59651;DHT22;45954;49.768;8.636;2022-12-05T19:06:58;6.60;99.90